Latest Weather Observations for New May Downs

IDQ60801

Issued at 11:02 pm EST Saturday 31 January 2015 (issued every 30 minutes, with the page automatically refreshed every 10 minutes)

About weather observations | Map of weather stations | Latest weather observations for QLD | Other Formats
Station Details ID: 037059 Name: NEW MAY DOWNS Lat: -20.59 Lon: 139.34 Height: 392.0 m
Data from the previous 72 hours. | See also: Recent months for locations in Queensland
Date/Time
EST
Temp
°C
App
Temp
°C
Dew
Point
Rel
Hum
%
Delta-T
°C
Wind Press
QNH
hPa
Press
MSL
hPa
Rain
since 9 am
mm
Dir
 
Spd
km/h
Gust
km/h
Spd
kts
Gust
kts
31/11:00pm 29.8 27.0 5.1 21 13.1 S 9 11 5 6 - - -
31/10:30pm 30.3 27.2 5.6 21 13.2 SSW 11 13 6 7 - - 0.0
31/10:00pm 29.3 27.2 6.0 23 12.5 S 6 9 3 5 - - 0.0
31/09:30pm 30.6 28.2 5.1 20 13.6 SW 7 9 4 5 - - 0.0
31/09:00pm 31.6 28.7 4.4 18 14.4 SSW 9 9 5 5 - - 0.0
31/08:30pm 32.9 30.2 3.8 16 15.4 S 7 9 4 5 - - 0.0
31/08:00pm 33.6 30.8 3.4 15 15.9 S 7 9 4 5 - - 0.0
31/07:30pm 34.9 31.8 3.5 14 16.7 S 9 11 5 6 - - 0.0
31/07:00pm 36.1 32.4 2.2 12 17.8 SSE 11 17 6 9 - - 0.0
31/06:30pm 37.0 33.2 1.7 11 18.4 SSE 11 17 6 9 - - 0.0
31/06:00pm 37.4 32.1 2.0 11 18.6 S 19 28 10 15 - - 0.0
31/05:30pm 38.0 33.9 2.5 11 18.9 S 13 24 7 13 - - 0.0
31/05:00pm 38.2 33.6 3.8 12 18.7 S 17 28 9 15 - - 0.0
31/04:30pm 38.9 34.8 4.4 12 19.0 SSW 15 24 8 13 - - 0.0
31/04:00pm 38.0 33.0 3.7 12 18.6 SSW 19 28 10 15 - - 0.0
31/03:30pm 38.4 34.2 4.0 12 18.8 S 15 26 8 14 - - 0.0
31/03:00pm 38.1 34.4 2.5 11 18.9 S 11 20 6 11 - - 0.0
31/02:30pm 38.4 33.9 4.0 12 18.8 S 17 30 9 16 - - 0.0
31/02:00pm 37.9 34.2 4.7 13 18.2 S 13 24 7 13 - - 0.0
31/01:30pm 38.4 35.8 6.2 14 18.1 S 9 19 5 10 - - 0.0
31/01:00pm 37.9 34.9 5.8 14 17.9 SE 11 19 6 10 - - 0.0
31/12:30pm 37.4 34.1 6.4 15 17.4 SE 13 22 7 12 - - 0.0
31/12:00pm 37.1 33.4 6.2 15 17.3 ESE 15 22 8 12 - - 0.0
31/11:30am 36.4 32.2 5.6 15 17.0 ESE 17 26 9 14 - - 0.0
31/11:00am 35.3 30.3 3.8 14 16.8 SE 19 28 10 15 - - 0.0
31/10:30am 34.6 29.5 4.2 15 16.3 SE 20 32 11 17 - - 0.0
31/10:00am 34.0 28.1 3.7 15 16.1 ESE 24 37 13 20 - - 0.0
31/09:30am 33.0 27.1 3.9 16 15.4 SE 24 37 13 20 - - 0.0
31/09:00am 31.9 26.7 3.8 17 14.7 SE 20 32 11 17 - - 0.0
31/08:30am 30.7 26.6 4.4 19 13.8 SSE 15 22 8 12 - - 0.0
31/08:00am 29.8 25.7 4.4 20 13.3 SE 15 28 8 15 - - 0.0
31/07:30am 29.0 25.3 4.5 21 12.8 SE 13 19 7 10 - - 0.0
31/07:00am 28.4 24.3 4.6 22 12.4 SE 15 24 8 13 - - 0.0
31/06:30am 27.6 23.3 5.2 24 11.7 SE 17 22 9 12 - - 0.0
31/06:00am 27.0 23.2 5.8 26 11.2 ESE 15 20 8 11 - - 0.0
31/05:30am 27.0 24.0 5.9 26 11.2 ESE 11 19 6 10 - - 0.0
31/05:00am 27.6 23.8 5.8 25 11.5 SE 15 20 8 11 - - 0.0
31/04:30am 27.7 24.4 6.5 26 11.4 SE 13 22 7 12 - - 0.0
31/04:00am 27.5 24.4 7.4 28 10.9 SE 13 19 7 10 - - 0.0
31/03:30am 26.3 24.6 8.3 32 9.9 SE 7 11 4 6 - - 0.0
31/03:00am 27.0 25.4 8.0 30 10.4 SSE 6 7 3 4 - - 0.0
31/02:30am 26.4 25.0 7.4 30 10.3 SSE 4 4 2 2 - - 0.0
31/02:00am 26.7 25.3 7.2 29 10.5 SSE 4 6 2 3 - - 0.0
31/01:30am 27.4 25.6 7.3 28 10.9 SSE 6 6 3 3 - - 0.0
31/01:00am 26.0 26.1 10.2 37 8.9 CALM 0 2 0 1 - - 0.0
31/12:30am 27.7 26.2 7.0 27 11.2 S 4 6 2 3 - - 0.0
31/12:00am 27.0 25.6 8.9 32 10.1 SSW 6 6 3 3 - - 0.0
 
Date/Time
EST
Temp
°C
App
Temp
°C
Dew
Point
Rel
Hum
%
Delta-T
°C
Wind Press
QNH
hPa
Press
MSL
hPa
Rain
since 9 am
mm
Dir
 
Spd
km/h
Gust
km/h
Spd
kts
Gust
kts
30/11:30pm 27.9 27.0 7.7 28 11.1 SSE 2 4 1 2 - - 0.0
30/11:00pm 28.9 26.9 6.9 25 12.0 S 7 9 4 5 - - 0.0
30/10:30pm 29.3 27.5 7.2 25 12.1 SSW 6 7 3 4 - - 0.0
30/10:00pm 29.7 27.7 7.0 24 12.4 SW 7 7 4 4 - - 0.0
30/09:30pm 30.2 28.1 6.8 23 12.8 SW 7 7 4 4 - - 0.0
30/09:00pm 30.9 29.0 6.7 22 13.2 SSW 6 7 3 4 - - 0.0
30/08:30pm 32.0 29.7 5.5 19 14.3 SSW 7 9 4 5 - - 0.0
30/08:00pm 33.1 30.8 5.6 18 15.0 SSW 7 9 4 5 - - 0.0
30/07:30pm 34.7 31.9 5.2 16 16.1 SSW 9 15 5 8 - - 0.0
30/07:00pm 35.9 33.1 5.2 15 16.8 SSE 9 17 5 9 - - 0.0
30/06:30pm 36.3 32.6 4.6 14 17.3 SSE 13 19 7 10 - - 0.0
30/06:00pm 35.9 33.3 6.2 16 16.5 SSW 9 13 5 7 - - 0.0
30/05:30pm 36.2 33.7 4.5 14 17.2 S 7 11 4 6 - - 0.0
30/05:00pm 36.4 32.9 5.6 15 17.0 SSE 13 22 7 12 - - 0.0
30/04:30pm 37.8 33.4 4.7 13 18.2 SSW 17 24 9 13 - - 0.0
30/04:00pm 36.9 34.1 5.0 14 17.5 S 9 17 5 9 - - 0.0
30/03:30pm 37.7 35.6 6.6 15 17.6 ESE 7 15 4 8 - - 0.0
30/03:00pm 36.3 33.4 6.5 16 16.7 ESE 11 22 6 12 - - 0.0
30/02:30pm 37.0 34.6 7.0 16 17.0 ESE 9 22 5 12 - - 0.0
30/02:00pm 38.2 36.4 7.0 15 17.8 SSE 6 11 3 6 - - 0.0
30/01:30pm 37.1 35.3 7.1 16 17.0 SSW 6 11 3 6 - - 0.0
30/01:00pm 36.5 34.0 6.6 16 16.8 ENE 9 19 5 10 - - 0.0
30/12:30pm 36.4 33.3 7.4 17 16.5 ESE 13 22 7 12 - - 0.0
30/12:00pm 36.8 33.6 8.6 18 16.4 E 15 20 8 11 - - 0.0
30/11:30am 35.9 32.6 7.9 18 16.0 E 15 22 8 12 - - 0.0
30/11:00am 35.1 31.6 7.2 18 15.7 ESE 15 28 8 15 - - 0.0
30/10:30am 34.7 30.7 8.4 20 15.1 ESE 19 30 10 16 - - 0.0
30/10:00am 34.3 30.8 8.8 21 14.7 ESE 17 26 9 14 - - 0.0
30/09:30am 33.2 29.7 8.6 22 14.0 ESE 17 24 9 13 - - 0.0
30/09:00am 31.9 29.2 8.8 24 13.1 ESE 13 22 7 12 - - 0.0
30/08:30am 30.2 28.7 9.1 27 12.0 SE 7 13 4 7 - - 0.0
30/08:00am 27.4 26.5 9.3 32 10.2 SE 4 6 2 3 - - 0.0
30/07:30am 26.0 25.7 8.5 33 9.6 CALM 0 0 0 0 - - 0.0
30/07:00am 23.4 23.3 12.1 49 6.5 SSW 4 6 2 3 - - 0.0
30/06:30am 22.8 20.7 5.7 33 8.8 SW 6 7 3 4 - - 0.0
30/06:00am 22.5 22.0 7.9 39 7.8 CALM 0 4 0 2 - - 0.0
30/05:30am 21.9 22.1 10.4 48 6.4 CALM 0 0 0 0 - - 0.0
30/05:00am 22.7 22.1 7.3 37 8.1 CALM 0 0 0 0 - - 0.0
30/04:30am 23.3 22.0 6.1 33 8.9 WSW 2 6 1 3 - - 0.0
30/04:00am 23.3 22.2 5.2 31 9.2 CALM 0 0 0 0 - - 0.0
30/03:30am 23.4 22.5 6.2 33 8.9 CALM 0 0 0 0 - - 0.0
30/03:00am 23.7 22.0 6.0 32 9.2 SW 4 6 2 3 - - 0.0
30/02:30am 25.8 23.0 3.1 23 11.3 SW 7 9 4 5 - - 0.0
30/02:00am 25.8 23.1 3.7 24 11.2 WSW 7 11 4 6 - - 0.0
30/01:30am 26.4 23.7 3.6 23 11.5 SW 7 11 4 6 - - 0.0
30/01:00am 26.5 23.8 3.7 23 11.6 WSW 7 13 4 7 - - 0.0
30/12:30am 26.4 24.1 4.8 25 11.2 SW 6 6 3 3 - - 0.0
30/12:00am 26.6 24.4 5.5 26 11.1 SW 6 7 3 4 - - 0.0
 
Date/Time
EST
Temp
°C
App
Temp
°C
Dew
Point
Rel
Hum
%
Delta-T
°C
Wind Press
QNH
hPa
Press
MSL
hPa
Rain
since 9 am
mm
Dir
 
Spd
km/h
Gust
km/h
Spd
kts
Gust
kts
29/11:30pm 27.4 24.9 4.5 23 11.8 SW 7 9 4 5 - - 0.0
29/11:00pm 27.9 25.3 4.2 22 12.2 WSW 7 9 4 5 - - 0.0
29/10:30pm 28.3 25.8 4.6 22 12.3 WSW 7 9 4 5 - - 0.0
29/10:00pm 28.6 26.2 4.2 21 12.6 SW 6 7 3 4 - - 0.0
29/09:30pm 29.1 26.4 3.9 20 13.0 WSW 7 9 4 5 - - 0.0
29/09:00pm 29.7 26.6 3.6 19 13.5 WSW 9 9 5 5 - - 0.0
29/08:30pm 30.5 27.8 3.5 18 14.0 SW 7 9 4 5 - - 0.0
29/08:00pm 31.5 28.8 2.7 16 14.8 SW 6 7 3 4 - - 0.0
29/07:30pm 33.1 29.9 1.0 13 16.2 SSW 7 11 4 6 - - 0.0
29/07:00pm 34.6 31.3 -0.1 11 17.4 S 7 11 4 6 - - 0.0
29/06:30pm 35.5 31.1 0.6 11 17.8 SSW 13 19 7 10 - - 0.0
29/06:00pm 35.4 31.4 0.5 11 17.7 SSE 11 19 6 10 - - 0.0
29/05:30pm 35.8 32.6 0.8 11 17.9 SSE 7 15 4 8 - - 0.0
29/05:00pm 35.8 31.8 0.8 11 17.9 SSE 11 22 6 12 - - 0.0
29/04:30pm 36.1 32.2 1.0 11 18.0 SE 11 17 6 9 - - 0.0
29/04:00pm 35.7 32.1 0.7 11 17.9 S 9 19 5 10 - - 0.0
29/03:30pm 35.8 31.3 -0.5 10 18.2 S 13 20 7 11 - - 0.0
29/03:00pm 35.4 32.0 -0.8 10 18.0 SE 7 13 4 7 - - 0.0
29/02:30pm 35.9 31.8 -0.5 10 18.2 S 11 20 6 11 - - 0.0
29/02:00pm 35.4 31.8 0.5 11 17.7 SE 9 20 5 11 - - 0.0
29/01:30pm 34.5 30.4 -0.2 11 17.3 S 11 20 6 11 - - 0.0
29/01:00pm 34.3 30.3 0.8 12 17.0 SE 11 22 6 12 - - 0.0
29/12:30pm 34.3 30.3 0.8 12 17.0 SE 11 20 6 11 - - 0.0
29/12:00pm 33.3 28.9 0.1 12 16.5 SSE 13 20 7 11 - - 0.0
29/11:30am 32.9 28.7 1.9 14 15.9 SE 13 22 7 12 - - 0.0
29/11:00am 32.2 27.6 1.3 14 15.6 SSE 15 24 8 13 - - 0.0
29/10:30am 31.4 27.0 2.6 16 14.8 SSE 15 24 8 13 - - 0.0
29/10:00am 30.3 26.2 4.1 19 13.7 SSE 15 22 8 12 - - 0.0
29/09:30am 28.8 24.9 3.6 20 12.9 S 13 19 7 10 - - 0.0
29/09:00am 27.7 23.6 4.1 22 12.1 SSE 15 26 8 14 - - 0.0
29/08:30am 26.3 22.9 4.1 24 11.3 SSE 11 19 6 10 - - 0.0
29/08:00am 24.7 21.7 3.9 26 10.5 S 9 17 5 9 - - 0.0
29/07:30am 22.8 19.8 3.9 29 9.4 SSW 9 13 5 7 - - 0.0
29/07:00am 21.0 18.2 3.2 31 8.6 SSW 7 9 4 5 - - 0.0
29/06:30am 20.3 17.5 3.1 32 8.3 SSW 7 9 4 5 - - 0.0
29/06:00am 20.2 17.4 3.0 32 8.2 SSW 7 9 4 5 - - 0.0
29/05:30am 20.4 17.5 2.7 31 8.4 SW 7 9 4 5 - - 0.0
29/05:00am 20.8 18.1 2.6 30 8.7 SW 6 7 3 4 - - 0.0
29/04:30am 20.9 17.6 2.7 30 8.7 SW 9 9 5 5 - - 0.0
29/04:00am 21.1 18.3 2.9 30 8.8 SW 7 7 4 4 - - 0.0
29/03:30am 21.7 19.0 2.4 28 9.2 SW 6 7 3 4 - - 0.0
29/03:00am 22.5 19.5 2.1 26 9.8 SW 7 9 4 5 - - 0.0
29/02:30am 23.3 20.2 1.6 24 10.4 SSW 7 9 4 5 - - 0.0
29/02:00am 24.0 20.6 1.6 23 10.7 SSW 9 13 5 7 - - 0.0
29/01:30am 24.8 21.8 1.7 22 11.2 S 7 13 4 7 - - 0.0
29/01:00am 24.6 21.1 1.5 22 11.1 SSE 9 13 5 7 - - 0.0
29/12:30am 24.9 21.5 1.7 22 11.2 S 9 11 5 6 - - 0.0
29/12:00am 25.1 22.1 1.9 22 11.3 SSE 7 9 4 5 - - 0.0
 
Date/Time
EST
Temp
°C
App
Temp
°C
Dew
Point
Rel
Hum
%
Delta-T
°C
Wind Press
QNH
hPa
Press
MSL
hPa
Rain
since 9 am
mm
Dir
 
Spd
km/h
Gust
km/h
Spd
kts
Gust
kts
28/11:30pm 25.9 22.4 1.2 20 11.9 S 9 9 5 5 - - 0.0

Other Formats:

Comma delimited format used in spreadsheet applications
http://www.bom.gov.au/fwo/IDQ60801/IDQ60801.94349.axf

JavaScript Object Notation format (JSON) in row-major order
http://www.bom.gov.au/fwo/IDQ60801/IDQ60801.94349.json